Terminal Aerodrome Forecast
Issued by NWS

Home | Current Version | Previous Version | Text Only | Print | Product List | Glossary On
Versions: 1 2 3 4 5 6 7 8 9 10 11 12
574
FTUS45 KPIH 301722
TAFSUN
TAF
KSUN 301722Z 3018/3118 15009KT P6SM BKN150 BKN200
     FM302300 21011KT P6SM BKN150
     FM310300 30008KT P6SM BKN120
     FM311400 31010KT P6SM VCSH BKN100=

USA.gov is the U.S. government's official web portal to all federal, state and local government web resources and services.